Moccasin, CA (95347)

4:29 PM PDT on August 28, 2014 (GMT -0700)
APRSWXNET Groveland CA US | Change Station
CLOSE
Current Station
Personal Weather Station
Location: Big Oak Flat, CA
Elevation: 2500 ft
Nearby Weather Stations

Elev 2500 ft 37.86 °N, 120.21 °W | Updated 31 minutes ago

Clear
Clear
89 °F
Feels Like 85 °F
N
3
Wind Variable Wind from NW
Gusts 5.0 mph

Today
High -- | Low -- °F
--% Chance of Precip.
Yesterday
High -- | Low -- °F
Precip. -- in
6:27 AM 7:36 PM
Waxing Crescent, 10% visible
Pressure 29.99 in
Visibility 10.0 miles
Clouds Clear
Heat Index 85 °F
Dew Point 35 °F
Humidity 15%
Rainfall 0.00 in
Snow Depth Not available.
UV 5 out of 12
Pollen 9.10 out of 12
Ozone Moderate
Flu Activity Not available.
METAR KO22 282315Z AUTO 22009KT 10SM CLR 34/06 A2999 RMK AO1

More Conditions Fewer Conditions

Pressure 29.99 in
Visibility 10.0 miles
Clouds Clear
Heat Index 85 °F
Dew Point 35 °F
Humidity 15%
Rainfall 0.00 in
Snow Depth Not available.
UV 5 out of 12
Pollen 9.10 out of 12
Ozone Moderate
Flu Activity Not available.
METAR KO22 282315Z AUTO 22009KT 10SM CLR 34/06 A2999 RMK AO1

More Conditions Fewer Conditions

10-Day Weather Forecast

Almanac

Astronomy

Aug. 28, 2014 Rise Set
Actual Time 6:27 AM PDT 7:36 PM PDT
Civil Twilight 6:00 AM PDT 8:03 PM PDT
Nautical Twilight 5:28 AM PDT 8:35 PM PDT
Astronomical Twilight 4:54 AM PDT 9:08 PM PDT
Moon 9:21 AM PDT 9:07 PM PDT
Length of Visible Light 14h 02m
Length of Day
13h 08m
Tomorrow will be 2m 18s shorter.
Waxing Crescent, 10% of the Moon is Illuminated
Today
Waxing Crescent
Sep 2
First Quarter
Sep 8
Full
Sep 15
Last Quarter
Sep 24
New

Today's Extremes

State Highs State Lows

Community

WunderPhotos

Upload Photos

1,748,104 photos uploaded!

Nearby

Air Quality

  Air Quality AQ Index Pollutant
Yesterday Unhealthy for Sensitive Groups
OZONE
Current Moderate
OZONE
Thursday Unhealthy for Sensitive Groups
OZONE
Friday Moderate
OZONE
Saturday Moderate
OZONE
Sunday Moderate
OZONE
Monday Moderate
OZONE
Tuesday Moderate
OZONE

Snow Depth

Station Depth Elevation
Leavitt Meadows 0 in 7200 ft
CSS Lab 4 in 6900 ft
Adin Mountain 1 in 6200 ft
Cedar Pass 0 in 7100 ft

Earthquake Activity

City Distance Mag. Time & Date
Soledad, California 97 miles 2.6 12:15 PM PDT
2014-08-26
American Canyon, California 112 miles 2.7 5:35 AM PDT
2014-08-26
American Canyon, California 111 miles 3.9 5:33 AM PDT
2014-08-26
Minimum magnitude displayed is 2.5.

Coastal Water Temperatures

Place Temperature
No Stations Reporting

Nearby Weather Stations